createdAt,value
2019-06-23T00:00:47.400Z,4.73
2019-06-23T00:01:54.922Z,4.97
2019-06-23T00:03:02.034Z,4.70
2019-06-23T00:04:09.972Z,4.33
2019-06-23T00:05:16.786Z,4.73
2019-06-23T00:06:24.638Z,4.57
2019-06-23T00:07:31.381Z,4.80
2019-06-23T00:08:38.951Z,4.23
2019-06-23T00:09:45.766Z,4.80
2019-06-23T00:10:53.307Z,4.77
2019-06-23T00:12:00.429Z,4.17
2019-06-23T00:13:08.337Z,4.93
2019-06-23T00:14:15.414Z,5.47
2019-06-23T00:15:22.933Z,5.27
2019-06-23T00:16:29.994Z,4.20
2019-06-23T00:17:38.494Z,4.80
2019-06-23T00:18:45.244Z,4.97
2019-06-23T00:19:52.785Z,5.33
2019-06-23T00:20:59.513Z,4.77
2019-06-23T00:22:07.368Z,3.93
2019-06-23T00:23:14.510Z,5.00
2019-06-23T00:24:22.139Z,4.23
2019-06-23T00:25:28.885Z,5.20
2019-06-23T00:26:36.763Z,4.20
2019-06-23T00:27:43.962Z,4.80
2019-06-23T00:28:51.573Z,4.80
2019-06-23T00:30:00.339Z,4.13
2019-06-23T00:31:14.419Z,5.17
2019-06-23T00:32:21.979Z,4.80
2019-06-23T00:33:29.978Z,4.60
2019-06-23T00:34:36.688Z,5.50
2019-06-23T00:35:44.422Z,4.70
2019-06-23T00:36:51.147Z,5.00
2019-06-23T00:37:58.652Z,4.70
2019-06-23T00:39:08.783Z,5.60
2019-06-23T00:40:17.380Z,4.80
2019-06-23T00:41:24.308Z,4.50
2019-06-23T00:42:32.207Z,5.00
2019-06-23T00:43:39.233Z,5.00
2019-06-23T00:44:46.757Z,4.90
2019-06-23T00:45:53.503Z,5.13
2019-06-23T00:47:01.087Z,4.60
2019-06-23T00:48:08.750Z,6.53
2019-06-23T00:49:16.311Z,5.00
2019-06-23T00:50:23.054Z,5.00
2019-06-23T00:51:30.930Z,5.20
2019-06-23T00:52:37.965Z,4.93
2019-06-23T00:53:45.483Z,4.67
2019-06-23T00:54:52.559Z,4.70
2019-06-23T00:56:02.266Z,4.90
2019-06-23T00:57:09.135Z,4.20
2019-06-23T00:58:16.721Z,5.10
2019-06-23T00:59:23.672Z,4.87
2019-06-23T01:00:36.718Z,5.23
2019-06-23T01:02:02.319Z,5.00
2019-06-23T01:03:10.368Z,5.30
2019-06-23T01:04:17.973Z,5.53
2019-06-23T01:05:24.727Z,4.70
2019-06-23T01:06:32.631Z,4.40
2019-06-23T01:07:39.473Z,4.93
2019-06-23T01:08:48.586Z,4.90
2019-06-23T01:10:02.433Z,4.90
2019-06-23T01:11:04.940Z,4.43
2019-06-23T01:12:11.812Z,4.30
2019-06-23T01:13:19.344Z,4.57
2019-06-23T01:14:28.396Z,4.73
2019-06-23T01:15:35.977Z,4.83
2019-06-23T01:16:43.294Z,5.80
2019-06-23T01:17:51.860Z,4.73
2019-06-23T01:18:58.612Z,4.40
2019-06-23T01:20:07.331Z,4.90
2019-06-23T01:21:14.669Z,4.90
2019-06-23T01:22:22.632Z,4.37
2019-06-23T01:23:29.563Z,5.17
2019-06-23T01:24:37.157Z,5.30
2019-06-23T01:25:43.879Z,4.53
2019-06-23T01:26:51.664Z,5.20
2019-06-23T01:27:58.918Z,4.90
2019-06-23T01:29:06.639Z,5.20
2019-06-23T01:30:14.088Z,4.80
2019-06-23T01:31:21.659Z,4.53
2019-06-23T01:32:28.411Z,4.73
2019-06-23T01:33:36.058Z,5.57
2019-06-23T01:34:42.872Z,4.80
2019-06-23T01:35:50.490Z,4.70
2019-06-23T01:36:57.259Z,4.63
2019-06-23T01:38:04.801Z,4.53
2019-06-23T01:39:11.919Z,4.87
2019-06-23T01:40:20.407Z,4.80
2019-06-23T01:41:27.218Z,4.83
2019-06-23T01:42:35.098Z,4.83
2019-06-23T01:43:41.849Z,4.83
2019-06-23T01:44:49.414Z,5.70
2019-06-23T01:45:56.622Z,4.00
2019-06-23T01:47:04.138Z,4.80
2019-06-23T01:48:11.223Z,4.80
2019-06-23T01:49:18.792Z,4.87
2019-06-23T01:50:25.533Z,4.77
2019-06-23T01:51:33.171Z,4.73
2019-06-23T01:52:39.906Z,4.93
2019-06-23T01:53:48.097Z,4.50
2019-06-23T01:54:56.715Z,4.53
2019-06-23T01:56:04.654Z,4.40
2019-06-23T01:57:11.860Z,4.40
2019-06-23T01:58:19.445Z,4.63
2019-06-23T01:59:26.802Z,3.63
2019-06-23T02:00:34.399Z,4.53
2019-06-23T02:01:41.131Z,4.37
2019-06-23T02:02:48.692Z,4.00
2019-06-23T02:03:55.768Z,4.80
2019-06-23T02:05:04.036Z,4.93
2019-06-23T02:06:10.786Z,5.30
2019-06-23T02:07:18.315Z,4.60
2019-06-23T02:08:25.068Z,4.97
2019-06-23T02:09:32.597Z,4.27
2019-06-23T02:10:39.344Z,4.77
2019-06-23T02:11:47.240Z,4.33
2019-06-23T02:12:54.030Z,4.47
2019-06-23T02:14:01.542Z,4.80
2019-06-23T02:15:09.819Z,4.80
2019-06-23T02:16:17.338Z,4.17
2019-06-23T02:17:24.089Z,4.70
2019-06-23T02:18:32.114Z,4.83
2019-06-23T02:19:39.441Z,4.70
2019-06-23T02:20:48.402Z,4.80
2019-06-23T02:22:10.275Z,5.17
2019-06-23T02:23:20.630Z,4.73
2019-06-23T02:24:28.029Z,4.83
2019-06-23T02:25:36.018Z,5.20
2019-06-23T02:26:42.782Z,4.70
2019-06-23T02:27:50.327Z,5.00
2019-06-23T02:28:57.558Z,4.87
2019-06-23T02:30:07.303Z,4.40
2019-06-23T02:31:14.061Z,4.87
2019-06-23T02:32:21.969Z,4.63
2019-06-23T02:33:28.705Z,4.40
2019-06-23T02:34:36.422Z,4.60
2019-06-23T02:35:43.506Z,4.50
2019-06-23T02:36:51.017Z,4.23
2019-06-23T02:37:57.777Z,4.27
2019-06-23T02:39:06.088Z,4.27
2019-06-23T02:40:13.189Z,4.73
2019-06-23T02:41:20.745Z,4.00
2019-06-23T02:42:27.488Z,4.67
2019-06-23T02:43:35.017Z,4.50
2019-06-23T02:44:42.161Z,4.63
2019-06-23T02:45:51.405Z,4.27
2019-06-23T02:47:09.397Z,5.07
2019-06-23T02:48:18.448Z,4.10
2019-06-23T02:49:27.582Z,4.37
2019-06-23T02:50:40.989Z,4.90
2019-06-23T02:51:53.298Z,4.00
2019-06-23T02:53:03.036Z,4.40
2019-06-23T02:54:30.884Z,4.30
2019-06-23T02:55:44.121Z,4.20
2019-06-23T02:56:55.839Z,4.03
2019-06-23T02:58:08.525Z,4.83
2019-06-23T02:59:16.354Z,4.13
2019-06-23T03:00:25.992Z,3.90
2019-06-23T03:01:33.373Z,4.57
2019-06-23T03:02:41.201Z,5.00
2019-06-23T03:03:48.090Z,4.37
2019-06-23T03:04:56.921Z,4.67
2019-06-23T03:06:03.638Z,4.77
2019-06-23T03:07:11.501Z,4.50
2019-06-23T03:08:18.607Z,4.53
2019-06-23T03:09:26.145Z,3.73
2019-06-23T03:10:33.590Z,4.53
2019-06-23T03:11:41.166Z,4.70
2019-06-23T03:12:47.924Z,4.57
2019-06-23T03:13:56.149Z,3.97
2019-06-23T03:15:02.917Z,4.57
2019-06-23T03:16:11.010Z,4.57
2019-06-23T03:17:17.760Z,4.57
2019-06-23T03:18:25.298Z,4.87
2019-06-23T03:19:32.355Z,3.93
2019-06-23T03:20:40.258Z,4.53
2019-06-23T03:21:47.372Z,4.27
2019-06-23T03:22:54.900Z,4.30
2019-06-23T03:24:02.651Z,4.13
2019-06-23T03:25:10.824Z,4.53
2019-06-23T03:26:33.310Z,4.23
2019-06-23T03:27:41.412Z,4.60
2019-06-23T03:28:48.545Z,4.03
2019-06-23T03:29:56.745Z,4.37
2019-06-23T03:31:04.362Z,3.90
2019-06-23T03:32:11.988Z,3.90
2019-06-23T03:33:19.275Z,4.33
2019-06-23T03:34:26.977Z,4.67
2019-06-23T03:35:35.883Z,4.70
2019-06-23T03:36:44.088Z,4.03
2019-06-23T03:37:51.697Z,4.10
2019-06-23T03:39:02.175Z,4.40
2019-06-23T03:40:09.448Z,4.37
2019-06-23T03:41:18.570Z,4.50
2019-06-23T03:42:25.958Z,3.80
2019-06-23T03:43:33.985Z,4.20
2019-06-23T03:44:41.107Z,4.57
2019-06-23T03:45:49.356Z,4.07
2019-06-23T03:46:56.093Z,4.70
2019-06-23T03:48:03.806Z,4.00
2019-06-23T03:49:10.865Z,4.70
2019-06-23T03:50:18.510Z,4.40
2019-06-23T03:51:25.592Z,4.20
2019-06-23T03:52:33.804Z,4.63
2019-06-23T03:53:40.985Z,4.00
2019-06-23T03:54:48.848Z,3.53
2019-06-23T03:55:55.590Z,4.27
2019-06-23T03:57:03.144Z,4.23
2019-06-23T03:58:10.501Z,4.87
2019-06-23T03:59:18.048Z,4.60
2019-06-23T04:00:25.273Z,4.33
2019-06-23T04:01:33.731Z,4.10
2019-06-23T04:02:40.486Z,3.90
2019-06-23T04:03:48.854Z,4.10
2019-06-23T04:04:55.918Z,4.70
2019-06-23T04:06:03.831Z,4.50
2019-06-23T04:07:11.117Z,4.50
2019-06-23T04:08:19.013Z,4.03
2019-06-23T04:09:26.397Z,4.00
2019-06-23T04:10:34.503Z,4.10
2019-06-23T04:11:41.458Z,4.07
2019-06-23T04:12:48.990Z,3.90
2019-06-23T04:13:56.050Z,4.00
2019-06-23T04:15:03.648Z,3.60
2019-06-23T04:16:10.445Z,3.60
2019-06-23T04:17:18.407Z,3.10
2019-06-23T04:18:25.446Z,3.83
2019-06-23T04:19:33.354Z,3.60
2019-06-23T04:20:45.666Z,2.90
2019-06-23T04:21:53.215Z,3.97
2019-06-23T04:23:00.297Z,3.80
2019-06-23T04:24:07.951Z,3.40
2019-06-23T04:25:15.117Z,3.60
2019-06-23T04:26:22.654Z,3.23
2019-06-23T04:27:29.448Z,3.13
2019-06-23T04:28:36.997Z,3.40
2019-06-23T04:29:44.147Z,3.43
2019-06-23T04:30:51.656Z,3.40
2019-06-23T04:31:58.391Z,4.17
2019-06-23T04:33:05.896Z,4.03
2019-06-23T04:34:13.121Z,3.40
2019-06-23T04:35:20.843Z,3.30
2019-06-23T04:36:28.264Z,3.30
2019-06-23T04:37:36.396Z,3.30
2019-06-23T04:38:43.465Z,3.53
2019-06-23T04:39:51.041Z,3.50
2019-06-23T04:40:58.106Z,3.20
2019-06-23T04:42:05.981Z,3.00
2019-06-23T04:43:12.760Z,3.37
2019-06-23T04:44:20.806Z,3.63
2019-06-23T04:45:27.566Z,3.07
2019-06-23T04:46:35.101Z,2.90
2019-06-23T04:47:42.647Z,3.47
2019-06-23T04:48:50.425Z,3.60
2019-06-23T04:49:57.207Z,3.70
2019-06-23T04:51:04.747Z,3.30
2019-06-23T04:52:11.852Z,3.60
2019-06-23T04:53:19.390Z,3.00
2019-06-23T04:54:26.505Z,3.80
2019-06-23T04:55:34.028Z,3.33
2019-06-23T04:56:40.867Z,3.50
2019-06-23T04:57:48.878Z,3.60
2019-06-23T04:58:55.615Z,3.93
2019-06-23T05:00:03.585Z,3.33
2019-06-23T05:01:12.478Z,3.20
2019-06-23T05:02:20.439Z,3.73
2019-06-23T05:03:28.267Z,3.17
2019-06-23T05:04:36.376Z,3.07
2019-06-23T05:05:43.664Z,3.43
2019-06-23T05:06:52.105Z,3.40
2019-06-23T05:07:59.140Z,3.07
2019-06-23T05:09:07.645Z,3.23
2019-06-23T05:10:14.982Z,3.23
2019-06-23T05:11:22.564Z,2.67
2019-06-23T05:12:29.709Z,2.80
2019-06-23T05:13:37.575Z,3.60
2019-06-23T05:14:45.363Z,3.43
2019-06-23T05:15:52.876Z,2.77
2019-06-23T05:16:59.639Z,3.10
2019-06-23T05:18:07.161Z,3.20
2019-06-23T05:19:14.220Z,2.63
2019-06-23T05:20:21.790Z,3.70
2019-06-23T05:21:29.196Z,3.23
2019-06-23T05:22:37.098Z,3.20
2019-06-23T05:23:43.989Z,3.70
2019-06-23T05:24:51.815Z,3.10
2019-06-23T05:25:58.585Z,3.47
2019-06-23T05:27:06.529Z,4.27
2019-06-23T05:28:13.661Z,3.40
2019-06-23T05:29:21.209Z,3.00
2019-06-23T05:30:28.341Z,3.07
2019-06-23T05:31:36.709Z,2.83
2019-06-23T05:32:43.472Z,3.53
2019-06-23T05:33:53.915Z,3.13
2019-06-23T05:35:00.141Z,3.10
2019-06-23T05:36:07.841Z,2.80
2019-06-23T05:37:14.587Z,2.70
2019-06-23T05:38:22.096Z,2.50
2019-06-23T05:39:28.867Z,3.37
2019-06-23T05:40:36.427Z,3.00
2019-06-23T05:41:43.245Z,3.20
2019-06-23T05:42:50.814Z,2.60
2019-06-23T05:43:57.742Z,3.40
2019-06-23T05:45:05.612Z,3.00
2019-06-23T05:46:12.399Z,2.90
2019-06-23T05:47:20.287Z,2.90
2019-06-23T05:48:27.082Z,3.10
2019-06-23T05:49:34.616Z,3.00
2019-06-23T05:50:41.733Z,3.30
2019-06-23T05:51:49.254Z,2.97
2019-06-23T05:52:56.595Z,2.60
2019-06-23T05:54:04.435Z,3.73
2019-06-23T05:55:11.291Z,3.30
2019-06-23T05:56:18.868Z,2.67
2019-06-23T05:57:26.003Z,3.07
2019-06-23T05:58:45.796Z,2.67
2019-06-23T05:59:42.769Z,3.53
2019-06-23T06:00:50.313Z,3.30
2019-06-23T06:01:57.083Z,3.33
2019-06-23T06:03:04.977Z,3.20
2019-06-23T06:04:11.868Z,3.37
2019-06-23T06:05:19.403Z,2.90
2019-06-23T06:06:26.327Z,2.70
2019-06-23T06:07:34.247Z,3.03
2019-06-23T06:08:41.437Z,2.90
2019-06-23T06:09:48.945Z,2.70
2019-06-23T06:10:56.048Z,3.50
2019-06-23T06:12:03.998Z,2.60
2019-06-23T06:13:11.183Z,2.63
2019-06-23T06:14:18.747Z,2.90
2019-06-23T06:15:25.838Z,3.23
2019-06-23T06:16:33.497Z,3.40
2019-06-23T06:17:40.599Z,3.20
2019-06-23T06:18:48.713Z,3.00
2019-06-23T06:19:55.438Z,3.37
2019-06-23T06:21:03.007Z,3.30
2019-06-23T06:22:09.764Z,2.73
2019-06-23T06:23:17.601Z,2.67
2019-06-23T06:24:24.741Z,3.13
2019-06-23T06:25:32.345Z,3.00
2019-06-23T06:26:39.100Z,3.60
2019-06-23T06:27:46.618Z,3.13
2019-06-23T06:28:53.396Z,2.60
2019-06-23T06:30:00.928Z,3.17
2019-06-23T06:31:07.674Z,2.70
2019-06-23T06:32:15.315Z,3.20
2019-06-23T06:33:22.380Z,3.30
2019-06-23T06:34:30.088Z,3.10
2019-06-23T06:35:37.236Z,2.57
2019-06-23T06:36:44.825Z,2.93
2019-06-23T06:37:51.589Z,3.17
2019-06-23T06:38:59.171Z,2.90
2019-06-23T06:40:06.642Z,3.33
2019-06-23T06:41:14.287Z,3.00
2019-06-23T06:42:21.024Z,2.77
2019-06-23T06:43:28.610Z,3.70
2019-06-23T06:44:35.361Z,3.40
2019-06-23T06:45:43.709Z,2.80
2019-06-23T06:46:50.456Z,3.30
2019-06-23T06:47:58.008Z,2.73
2019-06-23T06:49:04.747Z,3.57
2019-06-23T06:50:12.838Z,3.20
2019-06-23T06:51:19.920Z,3.40
2019-06-23T06:52:27.442Z,3.23
2019-06-23T06:53:34.544Z,3.37
2019-06-23T06:54:42.073Z,3.40
2019-06-23T06:55:50.185Z,3.57
2019-06-23T06:56:58.111Z,3.40
2019-06-23T06:58:04.852Z,3.23
2019-06-23T06:59:12.370Z,3.47
2019-06-23T07:00:19.337Z,3.30
2019-06-23T07:01:27.324Z,4.00
2019-06-23T07:02:34.105Z,4.17
2019-06-23T07:03:42.241Z,3.80
2019-06-23T07:04:48.995Z,3.53
2019-06-23T07:05:57.047Z,3.33
2019-06-23T07:07:03.868Z,3.00
2019-06-23T07:08:11.415Z,3.20
2019-06-23T07:09:18.470Z,3.07
2019-06-23T07:10:26.122Z,3.00
2019-06-23T07:11:35.090Z,3.67
2019-06-23T07:12:42.248Z,3.47
2019-06-23T07:13:49.375Z,3.30
2019-06-23T07:14:57.567Z,3.23
2019-06-23T07:16:04.303Z,3.27
2019-06-23T07:17:12.350Z,3.67
2019-06-23T07:18:19.730Z,3.67
2019-06-23T07:19:27.266Z,3.43
2019-06-23T07:20:34.158Z,3.60
2019-06-23T07:21:41.682Z,3.00
2019-06-23T07:22:48.476Z,3.37
2019-06-23T07:23:56.450Z,4.07
2019-06-23T07:25:03.191Z,3.57
2019-06-23T07:26:11.410Z,3.10
2019-06-23T07:27:18.502Z,3.43
2019-06-23T07:28:26.596Z,3.17
2019-06-23T07:29:33.348Z,3.20
2019-06-23T07:31:52.473Z,3.47
2019-06-23T07:33:00.451Z,3.67
2019-06-23T07:34:07.636Z,3.50
2019-06-23T07:35:15.170Z,3.57
2019-06-23T07:36:22.388Z,3.20
2019-06-23T07:37:42.491Z,3.60
2019-06-23T07:38:39.201Z,3.20
2019-06-23T07:39:46.752Z,3.53
2019-06-23T07:40:53.577Z,3.20
2019-06-23T07:42:01.119Z,3.43
2019-06-23T07:43:07.853Z,3.50
2019-06-23T07:44:15.372Z,3.37
2019-06-23T07:45:22.279Z,3.30
2019-06-23T07:46:30.285Z,3.20
2019-06-23T07:47:37.269Z,3.70
2019-06-23T07:48:44.818Z,3.90
2019-06-23T07:49:51.954Z,3.30
2019-06-23T07:50:59.973Z,3.23
2019-06-23T07:52:06.959Z,3.90
2019-06-23T07:53:14.914Z,3.80
2019-06-23T07:54:21.691Z,4.00
2019-06-23T07:55:29.694Z,3.43
2019-06-23T07:56:36.638Z,3.63
2019-06-23T07:57:44.631Z,3.63
2019-06-23T07:58:51.374Z,3.87
2019-06-23T07:59:59.308Z,3.60
2019-06-23T08:01:06.026Z,4.67
2019-06-23T08:02:13.663Z,3.80
2019-06-23T08:03:20.482Z,3.73
2019-06-23T08:04:28.097Z,3.40
2019-06-23T08:05:34.831Z,3.73
2019-06-23T08:06:42.335Z,3.70
2019-06-23T08:07:58.308Z,3.90
2019-06-23T08:08:58.921Z,3.90
2019-06-23T08:10:06.860Z,3.83
2019-06-23T08:11:14.388Z,3.60
2019-06-23T08:12:21.143Z,4.13
2019-06-23T08:13:28.710Z,4.20
2019-06-23T08:14:35.555Z,3.50
2019-06-23T08:15:43.052Z,3.93
2019-06-23T08:16:49.792Z,3.53
2019-06-23T08:17:57.714Z,3.70
2019-06-23T08:19:05.954Z,4.10
2019-06-23T08:20:13.783Z,4.30
2019-06-23T08:21:20.542Z,3.70
2019-06-23T08:22:28.133Z,4.37
2019-06-23T08:23:35.822Z,3.80
2019-06-23T08:24:43.423Z,3.67
2019-06-23T08:25:50.232Z,4.17
2019-06-23T08:26:57.795Z,3.77
2019-06-23T08:28:05.000Z,3.83
2019-06-23T08:29:12.589Z,3.70
2019-06-23T08:30:19.751Z,3.53
2019-06-23T08:31:27.390Z,4.10
2019-06-23T08:32:34.442Z,4.10
2019-06-23T08:33:42.743Z,4.13
2019-06-23T08:34:49.855Z,3.87
2019-06-23T08:35:57.918Z,3.47
2019-06-23T08:37:04.634Z,4.10
2019-06-23T08:38:15.867Z,4.50
2019-06-23T08:39:21.614Z,3.70
2019-06-23T08:40:29.163Z,3.90
2019-06-23T08:41:35.928Z,3.83
2019-06-23T08:42:43.487Z,4.10
2019-06-23T08:43:50.653Z,4.00
2019-06-23T08:44:58.525Z,3.40
2019-06-23T08:46:05.608Z,3.90
2019-06-23T08:47:13.497Z,3.63
2019-06-23T08:48:20.469Z,3.80
2019-06-23T08:49:28.129Z,3.50
2019-06-23T08:50:35.352Z,4.37
2019-06-23T08:51:43.002Z,3.97
2019-06-23T08:52:50.676Z,3.47
2019-06-23T08:53:58.500Z,3.70
2019-06-23T08:55:05.740Z,4.20
2019-06-23T08:56:13.361Z,3.33
2019-06-23T08:57:20.100Z,3.80
2019-06-23T08:58:28.063Z,3.43
2019-06-23T08:59:35.162Z,3.80
2019-06-23T09:00:43.560Z,3.80
2019-06-23T09:01:50.802Z,3.53
2019-06-23T09:02:58.521Z,3.50
2019-06-23T09:04:05.384Z,3.60
2019-06-23T09:05:13.605Z,3.33
2019-06-23T09:06:20.715Z,3.50
2019-06-23T09:07:28.405Z,3.50
2019-06-23T09:08:37.199Z,3.43
2019-06-23T09:09:44.546Z,3.20
2019-06-23T09:10:51.986Z,3.77
2019-06-23T09:12:00.222Z,3.43
2019-06-23T09:13:07.097Z,3.53
2019-06-23T09:14:15.194Z,3.23
2019-06-23T09:15:23.906Z,3.00
2019-06-23T09:16:31.569Z,3.50
2019-06-23T09:17:38.761Z,3.40
2019-06-23T09:18:46.527Z,3.70
2019-06-23T09:19:53.674Z,3.43
2019-06-23T09:21:01.489Z,3.63
2019-06-23T09:22:08.527Z,3.60
2019-06-23T09:23:16.655Z,3.97
2019-06-23T09:24:23.458Z,3.20
2019-06-23T09:25:31.124Z,4.37
2019-06-23T09:26:37.923Z,3.77
2019-06-23T09:27:45.837Z,3.43
2019-06-23T09:28:52.986Z,3.83
2019-06-23T09:30:01.164Z,3.20
2019-06-23T09:31:08.710Z,3.10
2019-06-23T09:32:16.238Z,4.03
2019-06-23T09:33:23.100Z,4.00
2019-06-23T09:34:31.305Z,3.97
2019-06-23T09:35:38.218Z,2.70
2019-06-23T09:36:46.111Z,4.10
2019-06-23T09:37:53.905Z,3.00
2019-06-23T09:39:01.556Z,3.07
2019-06-23T09:40:08.998Z,3.50
2019-06-23T09:41:16.922Z,3.20
2019-06-23T09:42:23.669Z,3.43
2019-06-23T09:43:31.289Z,3.90
2019-06-23T09:44:38.139Z,3.40
2019-06-23T09:45:46.459Z,3.30
2019-06-23T09:46:53.419Z,3.70
2019-06-23T09:48:01.947Z,4.00
2019-06-23T09:49:09.297Z,3.37
2019-06-23T09:50:16.861Z,3.80
2019-06-23T09:51:24.016Z,3.80
2019-06-23T09:52:31.636Z,3.30
2019-06-23T09:53:38.440Z,2.87
2019-06-23T09:54:46.070Z,3.30
2019-06-23T09:55:52.802Z,3.40
2019-06-23T09:57:01.456Z,3.97
2019-06-23T09:58:08.473Z,3.13
2019-06-23T09:59:16.036Z,3.27
2019-06-23T10:00:23.383Z,3.30
2019-06-23T10:01:31.205Z,3.87
2019-06-23T10:02:38.096Z,2.80
2019-06-23T10:03:45.623Z,3.60
2019-06-23T10:04:52.449Z,3.13
2019-06-23T10:06:00.171Z,3.60
2019-06-23T10:07:07.631Z,3.57
2019-06-23T10:08:16.300Z,3.20
2019-06-23T10:09:23.089Z,3.93
2019-06-23T10:10:30.824Z,3.17
2019-06-23T10:11:38.054Z,3.20
2019-06-23T10:12:45.599Z,3.57
2019-06-23T10:13:52.732Z,2.57
2019-06-23T10:15:00.330Z,2.90
2019-06-23T10:16:07.503Z,3.40
2019-06-23T10:17:15.834Z,3.83
2019-06-23T10:18:22.867Z,2.83
2019-06-23T10:19:30.981Z,2.97
2019-06-23T10:20:38.266Z,3.80
2019-06-23T10:21:46.066Z,3.40
2019-06-23T10:22:53.230Z,2.77
2019-06-23T10:24:01.551Z,3.73
2019-06-23T10:25:08.970Z,3.70
2019-06-23T10:26:16.905Z,3.07
2019-06-23T10:27:23.670Z,3.10
2019-06-23T10:28:33.621Z,2.90
2019-06-23T10:29:40.918Z,2.10
2019-06-23T10:30:48.464Z,2.70
2019-06-23T10:31:55.246Z,3.37
2019-06-23T10:33:02.989Z,3.10
2019-06-23T10:34:10.583Z,3.47
2019-06-23T10:35:18.349Z,2.97
2019-06-23T10:36:25.136Z,3.10
2019-06-23T10:37:33.263Z,3.70
2019-06-23T10:38:40.827Z,3.70
2019-06-23T10:39:49.157Z,2.97
2019-06-23T10:40:56.418Z,2.70
2019-06-23T10:42:04.743Z,3.20
2019-06-23T10:43:11.459Z,4.10
2019-06-23T10:44:19.035Z,3.30
2019-06-23T10:45:25.773Z,2.50
2019-06-23T10:46:33.392Z,3.20
2019-06-23T10:47:40.472Z,3.03
2019-06-23T10:48:48.462Z,3.30
2019-06-23T10:49:55.504Z,3.27
2019-06-23T10:51:03.026Z,3.33
2019-06-23T10:52:10.090Z,3.40
2019-06-23T10:53:18.767Z,3.27
2019-06-23T10:54:25.527Z,3.30
2019-06-23T10:55:33.071Z,2.90
2019-06-23T10:56:41.043Z,3.27
2019-06-23T10:57:48.533Z,2.90
2019-06-23T10:58:55.494Z,3.03
2019-06-23T11:00:03.846Z,4.07
2019-06-23T11:01:10.855Z,3.37
2019-06-23T11:02:18.447Z,3.00
2019-06-23T11:03:25.302Z,3.07
2019-06-23T11:04:33.346Z,3.80
2019-06-23T11:05:40.622Z,3.57
2019-06-23T11:06:48.659Z,3.30
2019-06-23T11:07:55.824Z,3.20
2019-06-23T11:09:03.499Z,2.80
2019-06-23T11:10:10.756Z,3.00
2019-06-23T11:11:18.313Z,3.00
2019-06-23T11:12:25.378Z,3.03
2019-06-23T11:13:33.280Z,3.50
2019-06-23T11:14:41.328Z,3.30
2019-06-23T11:15:49.654Z,3.67
2019-06-23T11:16:56.409Z,3.03
2019-06-23T11:18:03.955Z,3.03
2019-06-23T11:19:10.773Z,2.90
2019-06-23T11:20:18.616Z,3.47
2019-06-23T11:21:25.876Z,3.80
2019-06-23T11:22:33.607Z,2.90
2019-06-23T11:23:40.439Z,3.30
2019-06-23T11:24:47.954Z,3.00
2019-06-23T11:25:54.987Z,2.60
2019-06-23T11:27:02.952Z,2.80
2019-06-23T11:28:10.007Z,2.80
2019-06-23T11:29:17.539Z,2.90
2019-06-23T11:30:24.431Z,2.70
2019-06-23T11:31:32.881Z,3.10
2019-06-23T11:32:40.165Z,3.00
2019-06-23T11:33:48.127Z,3.00
2019-06-23T11:34:56.773Z,3.23
2019-06-23T11:36:04.667Z,2.73
2019-06-23T11:37:11.743Z,3.07
2019-06-23T11:38:19.395Z,2.80
2019-06-23T11:39:26.558Z,3.10
2019-06-23T11:40:34.380Z,2.93
2019-06-23T11:41:41.702Z,3.03
2019-06-23T11:42:49.365Z,2.70
2019-06-23T11:43:56.500Z,2.83
2019-06-23T11:45:04.248Z,3.10
2019-06-23T11:46:11.658Z,2.83
2019-06-23T11:47:19.627Z,3.33
2019-06-23T11:48:26.735Z,3.47
2019-06-23T11:49:34.536Z,3.67
2019-06-23T11:50:41.771Z,2.97
2019-06-23T11:51:49.356Z,2.83
2019-06-23T11:52:56.684Z,3.03
2019-06-23T11:54:05.192Z,3.20
2019-06-23T11:55:12.338Z,3.17
2019-06-23T11:56:19.932Z,3.10
2019-06-23T11:57:27.059Z,3.00
2019-06-23T11:58:34.986Z,2.93
2019-06-23T11:59:42.204Z,3.17
2019-06-23T12:00:50.106Z,3.07
2019-06-23T12:01:56.856Z,2.60
2019-06-23T12:03:05.251Z,2.80
2019-06-23T12:04:12.112Z,4.30
2019-06-23T12:05:20.055Z,3.10
2019-06-23T12:06:27.503Z,3.00
2019-06-23T12:07:35.263Z,3.00
2019-06-23T12:08:42.911Z,3.20
2019-06-23T12:09:50.432Z,3.17
2019-06-23T12:10:57.301Z,2.60
2019-06-23T12:12:06.542Z,3.30
2019-06-23T12:13:13.634Z,3.27
2019-06-23T12:14:21.955Z,3.37
2019-06-23T12:15:29.317Z,3.20
2019-06-23T12:16:37.315Z,3.00
2019-06-23T12:17:44.065Z,3.00
2019-06-23T12:18:51.715Z,3.30
2019-06-23T12:19:58.873Z,3.50
2019-06-23T12:21:06.691Z,2.83
2019-06-23T12:22:14.034Z,3.70
2019-06-23T12:23:21.627Z,3.20
2019-06-23T12:24:28.349Z,3.30
2019-06-23T12:25:36.022Z,3.40
2019-06-23T12:26:43.356Z,2.90
2019-06-23T12:27:51.755Z,2.73
2019-06-23T12:28:58.727Z,3.30
2019-06-23T12:30:07.209Z,3.10
2019-06-23T12:31:14.308Z,3.03
2019-06-23T12:32:21.985Z,3.00
2019-06-23T12:33:28.778Z,3.20
2019-06-23T12:34:36.674Z,3.03
2019-06-23T12:35:43.523Z,3.53
2019-06-23T12:36:51.604Z,3.27
2019-06-23T12:37:58.416Z,3.13
2019-06-23T12:39:08.537Z,2.87
2019-06-23T12:40:24.761Z,3.63
2019-06-23T12:41:24.986Z,3.83
2019-06-23T12:42:32.286Z,3.50
2019-06-23T12:43:40.272Z,2.77
2019-06-23T12:44:48.142Z,3.30
2019-06-23T12:45:55.665Z,3.70
2019-06-23T12:47:02.411Z,2.97
2019-06-23T12:48:10.345Z,2.90
2019-06-23T12:49:17.187Z,3.40
2019-06-23T12:50:24.904Z,3.50
2019-06-23T12:51:32.146Z,3.40
2019-06-23T12:52:39.720Z,3.40
2019-06-23T12:53:46.462Z,3.87
2019-06-23T12:54:54.415Z,3.00
2019-06-23T12:56:01.627Z,3.40
2019-06-23T12:57:09.690Z,2.93
2019-06-23T12:58:16.864Z,3.00
2019-06-23T12:59:24.392Z,3.53
2019-06-23T13:00:53.681Z,3.57
2019-06-23T13:02:02.017Z,3.10
2019-06-23T13:03:09.087Z,3.33
2019-06-23T13:04:17.023Z,3.90
2019-06-23T13:05:24.164Z,4.20
2019-06-23T13:06:31.715Z,3.30
2019-06-23T13:07:38.834Z,3.63
2019-06-23T13:08:47.079Z,3.50
2019-06-23T13:09:54.319Z,2.83
2019-06-23T13:11:02.239Z,3.20
2019-06-23T13:12:09.391Z,3.30
2019-06-23T13:13:17.595Z,3.10
2019-06-23T13:14:24.498Z,3.07
2019-06-23T13:15:32.033Z,4.00
2019-06-23T13:16:38.778Z,3.23
2019-06-23T13:17:46.351Z,4.67
2019-06-23T13:18:53.085Z,3.83
2019-06-23T13:20:00.672Z,3.30
2019-06-23T13:21:09.966Z,3.43
2019-06-23T13:22:17.911Z,3.70
2019-06-23T13:23:25.114Z,3.13
2019-06-23T13:24:33.066Z,3.47
2019-06-23T13:25:40.193Z,3.50
2019-06-23T13:26:48.285Z,3.10
2019-06-23T13:27:55.822Z,3.90
2019-06-23T13:29:03.641Z,3.70
2019-06-23T13:30:12.299Z,3.33
2019-06-23T13:31:20.326Z,4.10
2019-06-23T13:32:27.642Z,3.40
2019-06-23T13:33:35.205Z,4.30
2019-06-23T13:34:42.015Z,3.93
2019-06-23T13:35:49.561Z,3.73
2019-06-23T13:36:56.412Z,3.93
2019-06-23T13:38:04.284Z,3.30
2019-06-23T13:39:11.539Z,3.60
2019-06-23T13:40:19.169Z,3.30
2019-06-23T13:41:26.415Z,3.53
2019-06-23T13:42:34.155Z,4.40
2019-06-23T13:43:40.875Z,3.33
2019-06-23T13:44:48.984Z,3.73
2019-06-23T13:45:56.393Z,3.70
2019-06-23T13:47:04.387Z,3.60
2019-06-23T13:48:11.202Z,4.10
2019-06-23T13:49:18.878Z,3.40
2019-06-23T13:50:26.019Z,3.40
2019-06-23T13:51:33.912Z,3.47
2019-06-23T13:52:41.757Z,3.23
2019-06-23T13:53:51.315Z,3.40
2019-06-23T13:54:58.490Z,3.87
2019-06-23T13:56:06.211Z,3.53
2019-06-23T13:57:12.917Z,3.30
2019-06-23T13:58:20.425Z,3.20
2019-06-23T13:59:27.236Z,3.30
2019-06-23T14:00:35.187Z,3.80
2019-06-23T14:01:42.120Z,3.87
2019-06-23T14:02:50.251Z,3.53
2019-06-23T14:03:57.125Z,3.70
2019-06-23T14:05:04.669Z,3.50
2019-06-23T14:06:11.414Z,3.20
2019-06-23T14:07:19.576Z,3.50
2019-06-23T14:08:36.683Z,3.10
2019-06-23T14:09:37.466Z,3.67
2019-06-23T14:10:44.237Z,3.80
2019-06-23T14:11:51.775Z,3.60
2019-06-23T14:12:58.647Z,3.40
2019-06-23T14:14:06.698Z,3.43
2019-06-23T14:15:14.060Z,3.33
2019-06-23T14:16:21.975Z,3.80
2019-06-23T14:17:29.871Z,3.40
2019-06-23T14:18:37.837Z,3.23
2019-06-23T14:19:44.563Z,3.63
2019-06-23T14:20:52.157Z,3.63
2019-06-23T14:21:59.158Z,3.10
2019-06-23T14:23:06.692Z,3.40
2019-06-23T14:24:13.412Z,3.70
2019-06-23T14:25:21.315Z,3.07
2019-06-23T14:26:28.481Z,3.50
2019-06-23T14:27:36.226Z,3.30
2019-06-23T14:28:43.057Z,3.80
2019-06-23T14:29:50.957Z,3.30
2019-06-23T14:30:58.182Z,3.23
2019-06-23T14:32:06.066Z,3.40
2019-06-23T14:33:13.526Z,3.30
2019-06-23T14:34:21.452Z,3.30
2019-06-23T14:35:28.666Z,3.90
2019-06-23T14:36:36.711Z,3.17
2019-06-23T14:37:43.444Z,3.77
2019-06-23T14:38:51.035Z,3.90
2019-06-23T14:39:58.084Z,3.23
2019-06-23T14:41:06.024Z,3.70
2019-06-23T14:42:12.771Z,3.47
2019-06-23T14:43:20.712Z,3.47
2019-06-23T14:44:28.562Z,3.00
2019-06-23T14:45:36.750Z,3.63
2019-06-23T14:46:43.667Z,3.10
2019-06-23T14:47:51.526Z,3.40
2019-06-23T14:48:58.930Z,3.60
2019-06-23T14:50:07.575Z,3.37
2019-06-23T14:51:14.308Z,3.30
2019-06-23T14:52:21.830Z,3.00
2019-06-23T14:53:29.140Z,3.60
2019-06-23T14:54:36.698Z,3.03
2019-06-23T14:55:43.484Z,3.30
2019-06-23T14:56:51.013Z,3.40
2019-06-23T14:57:58.633Z,2.93
2019-06-23T14:59:06.338Z,3.13
2019-06-23T15:00:15.635Z,3.30
2019-06-23T15:01:23.496Z,3.90
2019-06-23T15:02:30.592Z,3.60